createdAt,value
2023-05-14T00:00:41.416Z,84.77
2023-05-14T00:01:41.914Z,84.78
2023-05-14T00:02:40.149Z,84.82
2023-05-14T00:03:39.553Z,84.96
2023-05-14T00:04:39.960Z,85.03
2023-05-14T00:05:39.834Z,84.99
2023-05-14T00:06:40.113Z,84.91
2023-05-14T00:07:39.162Z,84.93
2023-05-14T00:08:39.247Z,85.02
2023-05-14T00:09:39.430Z,84.96
2023-05-14T00:10:40.310Z,84.88
2023-05-14T00:11:39.713Z,84.98
2023-05-14T00:12:39.896Z,85.04
2023-05-14T00:13:39.873Z,84.94
2023-05-14T00:14:40.093Z,84.87
2023-05-14T00:15:39.811Z,84.87
2023-05-14T00:16:39.780Z,84.95
2023-05-14T00:17:40.024Z,84.97
2023-05-14T00:18:39.673Z,84.98
2023-05-14T00:19:40.155Z,84.97
2023-05-14T00:20:39.966Z,85
2023-05-14T00:21:40.047Z,84.97
2023-05-14T00:22:39.371Z,84.98
2023-05-14T00:23:39.175Z,85.01
2023-05-14T00:24:39.286Z,84.97
2023-05-14T00:25:39.400Z,84.92
2023-05-14T00:26:39.425Z,84.91
2023-05-14T00:27:39.606Z,84.85
2023-05-14T00:28:39.608Z,84.80
2023-05-14T00:29:39.598Z,84.83
2023-05-14T00:30:40.157Z,84.85
2023-05-14T00:31:39.206Z,84.85
2023-05-14T00:32:39.819Z,84.86
2023-05-14T00:33:39.540Z,84.92
2023-05-14T00:34:39.419Z,84.87
2023-05-14T00:35:39.571Z,84.82
2023-05-14T00:36:39.446Z,84.94
2023-05-14T00:37:39.896Z,84.94
2023-05-14T00:38:40.072Z,84.92
2023-05-14T00:39:39.040Z,84.91
2023-05-14T00:40:39.896Z,84.94
2023-05-14T00:41:39.621Z,84.93
2023-05-14T00:42:39.609Z,84.94
2023-05-14T00:43:39.562Z,84.95
2023-05-14T00:44:39.692Z,84.95
2023-05-14T00:45:39.755Z,84.97
2023-05-14T00:46:39.727Z,84.97
2023-05-14T00:47:39.969Z,84.91
2023-05-14T00:48:39.563Z,84.81
2023-05-14T00:49:39.703Z,84.86
2023-05-14T00:50:40.018Z,84.93
2023-05-14T00:51:39.901Z,85.05
2023-05-14T00:52:40.033Z,85.10
2023-05-14T00:53:39.642Z,85.05
2023-05-14T00:54:39.671Z,85.04
2023-05-14T00:55:39.680Z,85.09
2023-05-14T00:56:39.538Z,85.11
2023-05-14T00:57:40.019Z,85.16
2023-05-14T00:58:39.170Z,85.16
2023-05-14T00:59:39.480Z,85.25
2023-05-14T01:00:40.853Z,85.31
2023-05-14T01:01:40.088Z,85.39
2023-05-14T01:02:39.343Z,85.49
2023-05-14T01:03:39.857Z,85.51
2023-05-14T01:04:39.168Z,85.40
2023-05-14T01:05:44.438Z,85.31
2023-05-14T01:06:39.566Z,85.28
2023-05-14T01:07:44.519Z,85.26
2023-05-14T01:08:39.810Z,85.23
2023-05-14T01:09:39.690Z,85.12
2023-05-14T01:10:40.254Z,85.10
2023-05-14T01:11:39.498Z,85.11
2023-05-14T01:12:39.194Z,85.10
2023-05-14T01:13:38.971Z,85.13
2023-05-14T01:14:39.529Z,85.20
2023-05-14T01:15:47.477Z,85.16
2023-05-14T01:16:39.792Z,85.18
2023-05-14T01:17:39.846Z,85.09
2023-05-14T01:18:40.122Z,85.02
2023-05-14T01:19:39.650Z,85.10
2023-05-14T01:20:40.505Z,85.29
2023-05-14T01:21:39.376Z,85.30
2023-05-14T01:22:39.193Z,85.28
2023-05-14T01:23:39.356Z,85.24
2023-05-14T01:24:39.299Z,85.22
2023-05-14T01:25:39.444Z,85.15
2023-05-14T01:26:39.549Z,85.21
2023-05-14T01:27:39.301Z,85.15
2023-05-14T01:28:39.229Z,85.07
2023-05-14T01:29:39.287Z,85.08
2023-05-14T01:30:40.181Z,85.05
2023-05-14T01:31:39.408Z,85.07
2023-05-14T01:32:39.988Z,85.06
2023-05-14T01:33:39.433Z,85.08
2023-05-14T01:34:39.720Z,85.13
2023-05-14T01:35:39.642Z,85.15
2023-05-14T01:36:39.936Z,85.09
2023-05-14T01:37:39.680Z,85.10
2023-05-14T01:38:39.534Z,85.12
2023-05-14T01:39:39.455Z,85.14
2023-05-14T01:40:40.146Z,85.16
2023-05-14T01:41:44.346Z,85.12
2023-05-14T01:42:39.334Z,85.16
2023-05-14T01:43:39.829Z,85.25
2023-05-14T01:44:40.355Z,85.24
2023-05-14T01:45:39.736Z,85.26
2023-05-14T01:46:39.784Z,85.28
2023-05-14T01:47:39.569Z,85.27
2023-05-14T01:48:39.516Z,85.38
2023-05-14T01:49:39.623Z,85.48
2023-05-14T01:50:39.838Z,85.54
2023-05-14T01:51:39.848Z,85.56
2023-05-14T01:52:39.812Z,85.51
2023-05-14T01:53:39.971Z,85.47
2023-05-14T01:54:39.352Z,85.49
2023-05-14T01:55:39.463Z,85.5
2023-05-14T01:56:39.685Z,85.44
2023-05-14T01:57:39.772Z,85.41
2023-05-14T01:58:39.785Z,85.43
2023-05-14T01:59:39.857Z,85.48
2023-05-14T02:00:41.443Z,85.51
2023-05-14T02:01:39.498Z,85.54
2023-05-14T02:02:39.866Z,85.45
2023-05-14T02:03:39.935Z,85.38
2023-05-14T02:04:39.039Z,85.49
2023-05-14T02:05:39.618Z,85.44
2023-05-14T02:06:39.856Z,85.37
2023-05-14T02:07:39.817Z,85.43
2023-05-14T02:08:39.813Z,85.51
2023-05-14T02:09:40.059Z,85.47
2023-05-14T02:10:39.779Z,85.46
2023-05-14T02:11:40.029Z,85.48
2023-05-14T02:12:39.636Z,85.52
2023-05-14T02:13:39.416Z,85.48
2023-05-14T02:14:39.487Z,85.39
2023-05-14T02:15:39.695Z,85.47
2023-05-14T02:16:39.735Z,85.50
2023-05-14T02:17:39.896Z,85.44
2023-05-14T02:18:40.109Z,85.43
2023-05-14T02:19:39.566Z,85.41
2023-05-14T02:20:40.109Z,85.36
2023-05-14T02:21:39.310Z,85.30
2023-05-14T02:22:39.410Z,85.36
2023-05-14T02:23:56.001Z,85.41
2023-05-14T02:24:39.158Z,85.37
2023-05-14T02:25:39.289Z,85.34
2023-05-14T02:26:39.609Z,85.42
2023-05-14T02:27:40.033Z,85.44
2023-05-14T02:28:39.499Z,85.42
2023-05-14T02:29:39.444Z,85.40
2023-05-14T02:30:40.308Z,85.27
2023-05-14T02:31:40.044Z,85.22
2023-05-14T02:32:39.497Z,85.27
2023-05-14T02:33:39.579Z,85.29
2023-05-14T02:34:39.708Z,85.30
2023-05-14T02:35:39.711Z,85.33
2023-05-14T02:36:39.738Z,85.33
2023-05-14T02:37:39.710Z,85.35
2023-05-14T02:38:39.617Z,85.32
2023-05-14T02:39:39.463Z,85.33
2023-05-14T02:40:39.955Z,85.35
2023-05-14T02:41:39.842Z,85.46
2023-05-14T02:42:39.875Z,85.47
2023-05-14T02:43:39.854Z,85.44
2023-05-14T02:44:39.732Z,85.38
2023-05-14T02:45:40.007Z,85.34
2023-05-14T02:46:39.676Z,85.32
2023-05-14T02:47:39.942Z,85.39
2023-05-14T02:48:40.242Z,85.43
2023-05-14T02:49:39.830Z,85.42
2023-05-14T02:50:40.712Z,85.35
2023-05-14T02:51:39.898Z,85.33
2023-05-14T02:52:40.058Z,85.33
2023-05-14T02:53:39.238Z,85.38
2023-05-14T02:54:39.561Z,85.35
2023-05-14T02:55:40.107Z,85.36
2023-05-14T02:56:40.086Z,85.44
2023-05-14T02:57:39.705Z,85.44
2023-05-14T02:58:44.078Z,85.42
2023-05-14T02:59:39.855Z,85.46
2023-05-14T03:00:41.304Z,85.41
2023-05-14T03:01:40.046Z,85.44
2023-05-14T03:02:39.904Z,85.48
2023-05-14T03:03:39.616Z,85.59
2023-05-14T03:04:39.332Z,85.62
2023-05-14T03:05:39.494Z,85.66
2023-05-14T03:06:39.362Z,85.73
2023-05-14T03:07:39.669Z,85.69
2023-05-14T03:08:39.697Z,85.61
2023-05-14T03:09:39.848Z,85.52
2023-05-14T03:10:40.589Z,85.51
2023-05-14T03:11:39.504Z,85.48
2023-05-14T03:12:39.441Z,85.42
2023-05-14T03:13:39.386Z,85.47
2023-05-14T03:14:39.766Z,85.51
2023-05-14T03:15:40.206Z,85.56
2023-05-14T03:16:39.750Z,85.59
2023-05-14T03:17:40.298Z,85.62
2023-05-14T03:18:39.863Z,85.64
2023-05-14T03:19:39.805Z,85.62
2023-05-14T03:20:40.099Z,85.68
2023-05-14T03:21:39.278Z,85.72
2023-05-14T03:22:39.370Z,85.75
2023-05-14T03:23:39.382Z,85.80
2023-05-14T03:24:39.574Z,85.79
2023-05-14T03:25:39.641Z,85.74
2023-05-14T03:26:39.680Z,85.75
2023-05-14T03:27:39.682Z,85.75
2023-05-14T03:28:39.443Z,85.73
2023-05-14T03:29:39.499Z,85.69
2023-05-14T03:30:40.504Z,85.64
2023-05-14T03:31:39.570Z,85.54
2023-05-14T03:32:39.635Z,85.46
2023-05-14T03:33:39.305Z,85.45
2023-05-14T03:34:39.520Z,85.38
2023-05-14T03:35:39.622Z,85.48
2023-05-14T03:36:39.744Z,85.50
2023-05-14T03:37:39.515Z,85.49
2023-05-14T03:38:39.530Z,85.50
2023-05-14T03:39:39.487Z,85.48
2023-05-14T03:40:40.041Z,85.57
2023-05-14T03:41:39.261Z,85.59
2023-05-14T03:42:39.304Z,85.60
2023-05-14T03:43:38.977Z,85.55
2023-05-14T03:44:39.360Z,85.47
2023-05-14T03:45:39.925Z,85.44
2023-05-14T03:46:39.959Z,85.37
2023-05-14T03:47:40.247Z,85.31
2023-05-14T03:48:53.928Z,85.30
2023-05-14T03:49:40.253Z,85.32
2023-05-14T03:50:40.169Z,85.31
2023-05-14T03:51:39.808Z,85.28
2023-05-14T03:52:40.145Z,85.26
2023-05-14T03:53:39.544Z,85.25
2023-05-14T03:54:40.172Z,85.29
2023-05-14T03:55:40.122Z,85.35
2023-05-14T03:56:39.589Z,85.45
2023-05-14T03:57:39.791Z,85.53
2023-05-14T03:58:39.993Z,85.59
2023-05-14T03:59:39.458Z,85.65
2023-05-14T04:00:41.223Z,85.67
2023-05-14T04:01:39.454Z,85.72
2023-05-14T04:02:40.163Z,85.75
2023-05-14T04:03:40.363Z,85.75
2023-05-14T04:04:39.802Z,85.65
2023-05-14T04:05:39.987Z,85.62
2023-05-14T04:06:39.470Z,85.63
2023-05-14T04:07:39.688Z,85.49
2023-05-14T04:08:39.918Z,85.42
2023-05-14T04:09:40.157Z,85.44
2023-05-14T04:10:40.022Z,85.48
2023-05-14T04:11:39.691Z,85.39
2023-05-14T04:12:39.798Z,85.39
2023-05-14T04:13:39.857Z,85.57
2023-05-14T04:14:40.049Z,85.63
2023-05-14T04:15:39.625Z,85.61
2023-05-14T04:16:40.043Z,85.64
2023-05-14T04:17:39.638Z,85.70
2023-05-14T04:18:40.188Z,85.66
2023-05-14T04:19:39.843Z,85.65
2023-05-14T04:20:40.226Z,85.68
2023-05-14T04:21:39.496Z,85.59
2023-05-14T04:22:39.668Z,85.54
2023-05-14T04:23:39.988Z,85.54
2023-05-14T04:24:39.474Z,85.61
2023-05-14T04:25:40.182Z,85.72
2023-05-14T04:26:39.620Z,85.86
2023-05-14T04:27:39.771Z,85.91
2023-05-14T04:28:39.924Z,85.95
2023-05-14T04:29:40.086Z,85.99
2023-05-14T04:30:40.353Z,86.06
2023-05-14T04:31:39.828Z,86.14
2023-05-14T04:32:40.412Z,86.13
2023-05-14T04:33:39.764Z,86.08
2023-05-14T04:34:40.190Z,86.13
2023-05-14T04:35:40.629Z,86.23
2023-05-14T04:36:39.833Z,86.25
2023-05-14T04:37:39.974Z,86.28
2023-05-14T04:38:39.357Z,86.29
2023-05-14T04:39:39.823Z,86.27
2023-05-14T04:40:40.336Z,86.33
2023-05-14T04:41:39.672Z,86.40
2023-05-14T04:42:40.025Z,86.38
2023-05-14T04:43:39.699Z,86.33
2023-05-14T04:44:40.028Z,86.40
2023-05-14T04:45:40.209Z,86.48
2023-05-14T04:46:39.845Z,86.49
2023-05-14T04:47:40.178Z,86.51
2023-05-14T04:48:39.535Z,86.58
2023-05-14T04:49:40.071Z,86.69
2023-05-14T04:50:40.689Z,86.78
2023-05-14T04:51:40.324Z,86.83
2023-05-14T04:52:40.155Z,86.92
2023-05-14T04:53:39.620Z,86.95
2023-05-14T04:54:40.113Z,87.00
2023-05-14T04:55:39.901Z,87.10
2023-05-14T04:56:40.435Z,87.16
2023-05-14T04:57:40.290Z,87.15
2023-05-14T04:58:39.926Z,87.28
2023-05-14T04:59:40.366Z,87.36
2023-05-14T05:00:41.463Z,87.46
2023-05-14T05:01:40.408Z,87.48
2023-05-14T05:02:40.154Z,87.47
2023-05-14T05:03:39.982Z,87.50
2023-05-14T05:04:39.483Z,87.59
2023-05-14T05:05:39.808Z,87.61
2023-05-14T05:06:39.926Z,87.65
2023-05-14T05:07:40.150Z,87.75
2023-05-14T05:08:39.607Z,87.80
2023-05-14T05:09:39.975Z,87.89
2023-05-14T05:11:39.591Z,87.96
2023-05-14T05:12:39.763Z,88.01
2023-05-14T05:13:39.769Z,88.03
2023-05-14T05:14:40.057Z,88.16
2023-05-14T05:15:42.423Z,88.23
2023-05-14T05:16:39.900Z,88.24
2023-05-14T05:17:40.381Z,88.37
2023-05-14T05:18:39.664Z,88.48
2023-05-14T05:19:58.390Z,88.56
2023-05-14T05:20:40.166Z,88.54
2023-05-14T05:21:39.658Z,88.53
2023-05-14T05:22:39.693Z,88.62
2023-05-14T05:23:39.655Z,88.61
2023-05-14T05:24:40.059Z,88.67
2023-05-14T05:25:39.632Z,88.77
2023-05-14T05:26:40.278Z,88.86
2023-05-14T05:27:39.919Z,88.90
2023-05-14T05:28:40.205Z,88.97
2023-05-14T05:29:39.761Z,89.05
2023-05-14T05:30:40.504Z,89.07
2023-05-14T05:31:39.726Z,89.08
2023-05-14T05:32:40.078Z,89.12
2023-05-14T05:33:39.419Z,89.18
2023-05-14T05:34:39.868Z,89.30
2023-05-14T05:35:40.193Z,89.36
2023-05-14T05:36:39.674Z,89.47
2023-05-14T05:37:40.138Z,89.48
2023-05-14T05:38:39.690Z,89.55
2023-05-14T05:39:40.034Z,89.52
2023-05-14T05:40:39.861Z,89.47
2023-05-14T05:41:39.969Z,89.54
2023-05-14T05:42:40.132Z,89.51
2023-05-14T05:43:39.349Z,89.55
2023-05-14T05:44:39.789Z,89.67
2023-05-14T05:45:40.282Z,89.71
2023-05-14T05:46:39.765Z,89.70
2023-05-14T05:47:40.669Z,89.62
2023-05-14T05:48:40.113Z,89.52
2023-05-14T05:49:40.027Z,89.51
2023-05-14T05:50:40.358Z,89.39
2023-05-14T05:51:39.850Z,89.23
2023-05-14T05:52:40.464Z,89.22
2023-05-14T05:53:39.951Z,89.04
2023-05-14T05:54:40.235Z,88.93
2023-05-14T05:55:40.056Z,88.88
2023-05-14T05:56:39.651Z,88.72
2023-05-14T05:57:45.160Z,88.63
2023-05-14T05:58:39.935Z,88.55
2023-05-14T05:59:40.664Z,88.29
2023-05-14T06:01:45.197Z,88.27
2023-05-14T06:02:39.941Z,88.33
2023-05-14T06:03:39.456Z,88.29
2023-05-14T06:04:39.857Z,88.06
2023-05-14T06:05:40.187Z,88.09
2023-05-14T06:06:39.519Z,87.88
2023-05-14T06:07:39.813Z,87.66
2023-05-14T06:08:40.118Z,87.73
2023-05-14T06:09:39.520Z,87.96
2023-05-14T06:10:40.502Z,87.75
2023-05-14T06:11:47.772Z,87.82
2023-05-14T06:12:39.769Z,87.96
2023-05-14T06:13:53.885Z,88.10
2023-05-14T06:14:40.018Z,88.25
2023-05-14T06:15:39.355Z,88.26
2023-05-14T06:16:39.642Z,88.12
2023-05-14T06:17:39.662Z,87.91
2023-05-14T06:18:40.051Z,87.74
2023-05-14T06:19:39.721Z,87.81
2023-05-14T06:20:40.213Z,87.77
2023-05-14T06:21:39.563Z,87.73
2023-05-14T06:22:39.908Z,87.66
2023-05-14T06:23:40.070Z,87.56
2023-05-14T06:24:39.395Z,87.48
2023-05-14T06:25:39.818Z,87.34
2023-05-14T06:26:40.005Z,87.11
2023-05-14T06:27:39.545Z,86.85
2023-05-14T06:28:39.804Z,86.77
2023-05-14T06:29:40.047Z,86.72
2023-05-14T06:30:40.356Z,86.69
2023-05-14T06:31:39.827Z,86.73
2023-05-14T06:32:40.192Z,86.63
2023-05-14T06:33:39.555Z,86.59
2023-05-14T06:34:39.842Z,86.62
2023-05-14T06:35:40.001Z,86.67
2023-05-14T06:36:39.285Z,86.51
2023-05-14T06:37:39.741Z,86.42
2023-05-14T06:38:39.939Z,86.35
2023-05-14T06:39:40.435Z,86.26
2023-05-14T06:40:40.479Z,86.31
2023-05-14T06:41:39.729Z,86.45
2023-05-14T06:42:39.833Z,86.55
2023-05-14T06:43:40.045Z,86.55
2023-05-14T06:44:39.370Z,86.46
2023-05-14T06:45:39.987Z,86.45
2023-05-14T06:46:39.504Z,86.43
2023-05-14T06:47:40.127Z,86.42
2023-05-14T06:48:39.962Z,86.54
2023-05-14T06:49:39.576Z,86.48
2023-05-14T06:50:40.664Z,86.47
2023-05-14T06:51:40.077Z,86.46
2023-05-14T06:52:39.422Z,86.54
2023-05-14T06:53:39.845Z,86.55
2023-05-14T06:54:40.044Z,86.51
2023-05-14T06:55:40.037Z,86.44
2023-05-14T06:56:39.579Z,86.38
2023-05-14T06:57:40.941Z,86.32
2023-05-14T06:58:39.757Z,86.36
2023-05-14T06:59:40.375Z,86.44
2023-05-14T07:00:42.077Z,86.48
2023-05-14T07:02:11.353Z,86.51
2023-05-14T07:02:44.015Z,86.53
2023-05-14T07:03:39.396Z,86.56
2023-05-14T07:04:40.082Z,86.51
2023-05-14T07:05:39.888Z,86.41
2023-05-14T07:06:40.340Z,86.25
2023-05-14T07:07:39.500Z,86.13
2023-05-14T07:08:39.863Z,86.20
2023-05-14T07:09:40.173Z,86.19
2023-05-14T07:10:40.449Z,86.44
2023-05-14T07:11:40.002Z,86.64
2023-05-14T07:12:39.307Z,86.75
2023-05-14T07:13:42.024Z,86.75
2023-05-14T07:14:39.828Z,86.93
2023-05-14T07:15:40.624Z,86.91
2023-05-14T07:16:39.895Z,86.99
2023-05-14T07:17:40.319Z,87.11
2023-05-14T07:18:39.828Z,87.13
2023-05-14T07:19:40.035Z,87.07
2023-05-14T07:20:40.354Z,86.91
2023-05-14T07:21:39.788Z,86.83
2023-05-14T07:22:39.810Z,86.71
2023-05-14T07:23:40.255Z,86.57
2023-05-14T07:24:39.623Z,86.54
2023-05-14T07:25:39.854Z,86.55
2023-05-14T07:26:40.128Z,86.58
2023-05-14T07:27:39.782Z,86.45
2023-05-14T07:28:39.889Z,86.13
2023-05-14T07:29:39.950Z,86.08
2023-05-14T07:30:40.887Z,85.88
2023-05-14T07:31:40.573Z,85.72
2023-05-14T07:32:40.027Z,85.76
2023-05-14T07:33:39.658Z,85.60
2023-05-14T07:34:39.915Z,85.60
2023-05-14T07:35:39.603Z,85.53
2023-05-14T07:36:39.827Z,85.37
2023-05-14T07:37:39.903Z,85.38
2023-05-14T07:38:39.997Z,85.33
2023-05-14T07:39:39.499Z,85.11
2023-05-14T07:40:40.674Z,84.88
2023-05-14T07:41:39.978Z,84.81
2023-05-14T07:42:51.091Z,84.73
2023-05-14T07:43:39.493Z,84.57
2023-05-14T07:44:39.868Z,84.52
2023-05-14T07:45:40.225Z,84.54
2023-05-14T07:46:39.685Z,84.60
2023-05-14T07:47:40.401Z,84.59
2023-05-14T07:48:40.068Z,84.51
2023-05-14T07:49:39.601Z,84.48
2023-05-14T07:50:40.869Z,84.51
2023-05-14T07:51:40.213Z,84.23
2023-05-14T07:52:39.952Z,84.15
2023-05-14T07:53:40.521Z,84.05
2023-05-14T07:54:39.972Z,83.92
2023-05-14T07:55:40.624Z,83.58
2023-05-14T07:56:40.203Z,83.29
2023-05-14T07:57:39.785Z,83.11
2023-05-14T07:58:40.399Z,83.07
2023-05-14T07:59:40.676Z,82.89
2023-05-14T08:00:41.715Z,82.67
2023-05-14T08:01:40.349Z,82.48
2023-05-14T08:02:40.281Z,82.33
2023-05-14T08:03:40.491Z,82.28
2023-05-14T08:04:40.564Z,82.31
2023-05-14T08:05:40.564Z,82.28
2023-05-14T08:06:40.394Z,82.36
2023-05-14T08:07:39.917Z,82.45
2023-05-14T08:08:40.215Z,82.59
2023-05-14T08:09:39.889Z,82.43
2023-05-14T08:10:41.159Z,82.34
2023-05-14T08:11:39.756Z,82.17
2023-05-14T08:12:40.520Z,82.14
2023-05-14T08:13:40.096Z,82.44
2023-05-14T08:14:39.800Z,82.45
2023-05-14T08:15:43.521Z,82.37
2023-05-14T08:16:40.268Z,82.35
2023-05-14T08:17:40.161Z,82.31
2023-05-14T08:18:40.008Z,82.50
2023-05-14T08:19:40.255Z,82.22
2023-05-14T08:20:40.572Z,82.34
2023-05-14T08:21:39.982Z,82.55
2023-05-14T08:22:44.953Z,82.77
2023-05-14T08:23:40.531Z,83.10
2023-05-14T08:24:45.100Z,83.31
2023-05-14T08:25:40.083Z,83.36
2023-05-14T08:26:39.762Z,83.25
2023-05-14T08:27:40.243Z,83.01
2023-05-14T08:28:47.351Z,82.79
2023-05-14T08:29:39.949Z,82.63
2023-05-14T08:30:45.481Z,82.53
2023-05-14T08:31:40.389Z,82.56
2023-05-14T08:32:47.668Z,82.57
2023-05-14T08:33:39.964Z,82.47
2023-05-14T08:34:41.442Z,82.50
2023-05-14T08:35:40.326Z,82.41
2023-05-14T08:36:47.635Z,82.23
2023-05-14T08:37:39.891Z,82.22
2023-05-14T08:38:40.324Z,82.04
2023-05-14T08:39:39.818Z,82.05
2023-05-14T08:40:41.037Z,81.97
2023-05-14T08:41:39.802Z,81.79
2023-05-14T08:42:39.983Z,81.43
2023-05-14T08:43:39.596Z,80.82
2023-05-14T08:44:40.039Z,80.33
2023-05-14T08:45:40.016Z,80.02
2023-05-14T08:46:39.915Z,80.41
2023-05-14T08:47:40.801Z,80.53
2023-05-14T08:48:40.458Z,80.63
2023-05-14T08:49:39.747Z,80.42
2023-05-14T08:50:41.196Z,80.55
2023-05-14T08:51:39.807Z,80.37
2023-05-14T08:52:40.189Z,80.38
2023-05-14T08:53:40.144Z,80.58
2023-05-14T08:54:58.901Z,80.63
2023-05-14T08:55:40.606Z,80.76
2023-05-14T08:56:40.090Z,80.65
2023-05-14T08:57:39.746Z,80.62
2023-05-14T08:58:44.891Z,80.21
2023-05-14T08:59:40.232Z,80.54
2023-05-14T09:00:46.512Z,80.80
2023-05-14T09:01:40.367Z,80.84
2023-05-14T09:02:59.412Z,80.67
2023-05-14T09:03:40.145Z,80.00
2023-05-14T09:05:02.263Z,79.83
2023-05-14T09:05:40.029Z,79.23
2023-05-14T09:06:39.786Z,78.44
2023-05-14T09:07:40.614Z,78.43
2023-05-14T09:08:40.148Z,78.03
2023-05-14T09:09:39.744Z,78.05
2023-05-14T09:10:40.785Z,78.30
2023-05-14T09:11:40.448Z,78.76
2023-05-14T09:12:39.945Z,78.73
2023-05-14T09:13:42.578Z,78.50
2023-05-14T09:14:40.183Z,78.55
2023-05-14T09:15:40.317Z,77.88
2023-05-14T09:16:40.107Z,77
2023-05-14T09:17:39.835Z,76.41
2023-05-14T09:18:40.749Z,76.97
2023-05-14T09:19:40.933Z,77.21
2023-05-14T09:20:41.499Z,77.24
2023-05-14T09:21:40.106Z,77.14
2023-05-14T09:22:40.038Z,76.98
2023-05-14T09:23:39.904Z,75.97
2023-05-14T09:24:40.564Z,75.55
2023-05-14T09:25:40.269Z,75.38
2023-05-14T09:26:40.532Z,75.38
2023-05-14T09:27:39.819Z,75.53
2023-05-14T09:28:40.106Z,75.43
2023-05-14T09:29:39.836Z,75.26
2023-05-14T09:30:40.945Z,74.92
2023-05-14T09:31:40.390Z,74.95
2023-05-14T09:33:11.178Z,74.70
2023-05-14T09:33:43.693Z,74.15
2023-05-14T09:34:40.092Z,74.06
2023-05-14T09:35:39.901Z,73.61
2023-05-14T09:36:59.317Z,74.02
2023-05-14T09:37:39.855Z,74.63
2023-05-14T09:38:40.456Z,74.84
2023-05-14T09:39:39.998Z,75.02
2023-05-14T09:40:40.789Z,74.36
2023-05-14T09:41:40.236Z,74.05
2023-05-14T09:42:39.821Z,73.55
2023-05-14T09:43:40.081Z,73.37
2023-05-14T09:44:39.801Z,73.49
2023-05-14T09:45:40.597Z,73.55
2023-05-14T09:46:40.218Z,74.20
2023-05-14T09:47:40.070Z,74.37
2023-05-14T09:48:40.175Z,74.52
2023-05-14T09:49:40.057Z,74.38
2023-05-14T09:50:40.492Z,74.62
2023-05-14T09:51:39.912Z,74.90
2023-05-14T09:52:40.162Z,75.01
2023-05-14T09:53:39.749Z,74.58
2023-05-14T09:55:40.195Z,73.61
2023-05-14T09:56:40.261Z,72.98
2023-05-14T09:57:39.609Z,72.79
2023-05-14T09:58:40.172Z,72.11
2023-05-14T09:59:39.811Z,72.27
2023-05-14T10:00:41.811Z,72.09
2023-05-14T10:01:40.603Z,72
2023-05-14T10:02:40.399Z,71.23
2023-05-14T10:03:39.954Z,70.54
2023-05-14T10:04:40.770Z,70.18
2023-05-14T10:05:40.355Z,69.11
2023-05-14T10:06:40.071Z,68.47
2023-05-14T10:07:39.575Z,68.13
2023-05-14T10:08:40.133Z,68.07
2023-05-14T10:09:39.861Z,68.63
2023-05-14T10:10:41.177Z,69.55
2023-05-14T10:11:39.753Z,69.90
2023-05-14T10:12:40.203Z,70.09
2023-05-14T10:13:39.766Z,69.62
2023-05-14T10:14:40.462Z,69.88
2023-05-14T10:15:40.323Z,70.01
2023-05-14T10:16:40.068Z,70.63
2023-05-14T10:17:39.900Z,71.20
2023-05-14T10:18:40.493Z,71.41
2023-05-14T10:19:40.307Z,71.35
2023-05-14T10:20:41.048Z,70.66
2023-05-14T10:21:39.819Z,70.14
2023-05-14T10:22:40.549Z,69.59
2023-05-14T10:23:39.923Z,69.96
2023-05-14T10:25:40.125Z,69.63
2023-05-14T10:26:40.069Z,69.30
2023-05-14T10:27:39.723Z,69.18
2023-05-14T10:28:39.949Z,69.43
2023-05-14T10:29:40.450Z,70.13
2023-05-14T10:30:40.579Z,70.12
2023-05-14T10:31:40.349Z,70.02
2023-05-14T10:32:40.249Z,69.83
2023-05-14T10:33:40.534Z,69.46
2023-05-14T10:34:41.036Z,69.41
2023-05-14T10:35:39.974Z,69.67
2023-05-14T10:36:40.128Z,69.78
2023-05-14T10:37:39.643Z,70.21
2023-05-14T10:38:40.035Z,70.5
2023-05-14T10:39:39.754Z,70.58
2023-05-14T10:40:40.839Z,70.23
2023-05-14T10:41:40.158Z,69.91
2023-05-14T10:42:40.010Z,69.75
2023-05-14T10:43:39.520Z,69.84
2023-05-14T10:44:40.022Z,70.37
2023-05-14T10:45:44.842Z,70.83
2023-05-14T10:46:40.622Z,70.5
2023-05-14T10:47:45.319Z,69.72
2023-05-14T10:48:39.698Z,69.23
2023-05-14T10:49:59.072Z,68.02
2023-05-14T10:50:40.399Z,65.94
2023-05-14T10:51:45.097Z,65.08
2023-05-14T10:52:39.871Z,63.04
2023-05-14T10:53:45.237Z,62.20
2023-05-14T10:54:40.237Z,61.79
2023-05-14T10:55:39.999Z,61.66
2023-05-14T10:56:40.042Z,62.43
2023-05-14T10:57:39.520Z,63.45
2023-05-14T10:58:40.085Z,63.20
2023-05-14T10:59:40.010Z,63.24
2023-05-14T11:00:41.186Z,63.86
2023-05-14T11:01:40.058Z,64.43
2023-05-14T11:02:39.705Z,63.90
2023-05-14T11:03:40.355Z,63.81
2023-05-14T11:04:40.194Z,64.16
2023-05-14T11:05:40.501Z,64.48
2023-05-14T11:06:40.302Z,63.54
2023-05-14T11:07:39.750Z,63.09
2023-05-14T11:08:43.734Z,62.95
2023-05-14T11:09:40.301Z,63.38
2023-05-14T11:10:40.458Z,63.77
2023-05-14T11:11:54.261Z,64.56
2023-05-14T11:12:40.037Z,64.44
2023-05-14T11:13:39.603Z,64.45
2023-05-14T11:14:40.448Z,64.73
2023-05-14T11:15:40.349Z,65.05
2023-05-14T11:16:40.105Z,65.01
2023-05-14T11:17:39.978Z,64.82
2023-05-14T11:18:39.851Z,65.43
2023-05-14T11:19:59.322Z,65.93
2023-05-14T11:20:40.274Z,65.57
2023-05-14T11:21:40.138Z,65.64
2023-05-14T11:22:39.787Z,65.83
2023-05-14T11:23:40.365Z,65.69
2023-05-14T11:24:39.884Z,65.20
2023-05-14T11:25:40.370Z,65.76
2023-05-14T11:26:40.234Z,66.75
2023-05-14T11:27:39.852Z,66.62
2023-05-14T11:28:40.524Z,66.21
2023-05-14T11:29:40.264Z,66.56
2023-05-14T11:30:40.753Z,67.40
2023-05-14T11:31:45.443Z,67.64
2023-05-14T11:32:39.938Z,67.66
2023-05-14T11:33:39.533Z,67.80
2023-05-14T11:34:40.179Z,67.68
2023-05-14T11:35:39.934Z,67.52
2023-05-14T11:36:40.650Z,67.71
2023-05-14T11:37:40.019Z,67.61
2023-05-14T11:38:39.746Z,67.63
2023-05-14T11:39:40.311Z,67.93
2023-05-14T11:40:40.436Z,67.72
2023-05-14T11:41:40.242Z,67.52
2023-05-14T11:42:40.127Z,67.78
2023-05-14T11:43:39.725Z,67.94
2023-05-14T11:44:40.497Z,68.13
2023-05-14T11:45:40.329Z,67.55
2023-05-14T11:46:40.321Z,67.17
2023-05-14T11:47:54.232Z,67
2023-05-14T11:48:40.104Z,66.64
2023-05-14T11:50:11.025Z,66.28
2023-05-14T11:50:44.257Z,66.55
2023-05-14T11:51:40.200Z,66.11
2023-05-14T11:52:39.847Z,65.07
2023-05-14T11:53:40.470Z,64.88
2023-05-14T11:54:40.097Z,65.19
2023-05-14T11:55:39.872Z,65.43
2023-05-14T11:56:40.828Z,65.5
2023-05-14T11:57:59.661Z,65.93
2023-05-14T11:58:40.234Z,66.01
2023-05-14T11:59:39.806Z,66.10
2023-05-14T12:00:41.585Z,66.64
2023-05-14T12:01:40.120Z,66.44
2023-05-14T12:02:39.785Z,65.58
2023-05-14T12:03:40.922Z,65.48
2023-05-14T12:04:39.970Z,65.30
2023-05-14T12:05:40.062Z,65.11
2023-05-14T12:06:39.655Z,65.50
2023-05-14T12:07:39.984Z,65.64
2023-05-14T12:08:39.127Z,65.81
2023-05-14T12:09:39.939Z,65.95
2023-05-14T12:10:40.891Z,66.09
2023-05-14T12:11:40.277Z,66.34
2023-05-14T12:12:39.967Z,66.73
2023-05-14T12:13:39.899Z,66.81
2023-05-14T12:14:40.487Z,66.65
2023-05-14T12:15:40.318Z,67.01
2023-05-14T12:16:40.352Z,67.50
2023-05-14T12:17:40.411Z,67.71
2023-05-14T12:18:41.223Z,67.29
2023-05-14T12:19:39.974Z,67.35
2023-05-14T12:20:40.132Z,67.33
2023-05-14T12:21:39.904Z,67.37
2023-05-14T12:22:40.424Z,66.76
2023-05-14T12:23:39.694Z,66.39
2023-05-14T12:24:40.222Z,66.40
2023-05-14T12:25:39.980Z,66.70
2023-05-14T12:26:39.510Z,67.19
2023-05-14T12:27:39.872Z,67.48
2023-05-14T12:28:40.417Z,67.64
2023-05-14T12:29:39.772Z,67.73
2023-05-14T12:30:40.421Z,67.75
2023-05-14T12:31:40.151Z,67.87
2023-05-14T12:32:40.003Z,68.03
2023-05-14T12:33:39.736Z,68.15
2023-05-14T12:34:40.255Z,68.06
2023-05-14T12:35:40.088Z,68.11
2023-05-14T12:36:39.435Z,68.16
2023-05-14T12:37:40.319Z,68.16
2023-05-14T12:38:39.781Z,68.13
2023-05-14T12:39:40.187Z,68.17
2023-05-14T12:40:40.358Z,68.16
2023-05-14T12:41:39.862Z,68.33
2023-05-14T12:42:40.306Z,68.55
2023-05-14T12:43:40.048Z,68.61
2023-05-14T12:44:39.968Z,68.65
2023-05-14T12:45:41.207Z,68.80
2023-05-14T12:46:40.413Z,68.91
2023-05-14T12:47:40.518Z,68.79
2023-05-14T12:48:40.378Z,68.45
2023-05-14T12:49:40.258Z,68.23
2023-05-14T12:50:40.689Z,68.05
2023-05-14T12:51:40.593Z,68.03
2023-05-14T12:52:53.850Z,67.85
2023-05-14T12:53:40.319Z,67.51
2023-05-14T12:54:41.700Z,67.45
2023-05-14T12:55:40.669Z,68.22
2023-05-14T12:56:40.167Z,68.33
2023-05-14T12:57:40.149Z,68.60